createdAt,value
2023-05-19T00:00:30.806Z,101420.72
2023-05-19T00:05:33.549Z,101419.63
2023-05-19T00:10:35.350Z,101418.56
2023-05-19T00:15:37.105Z,101417.94
2023-05-19T00:20:38.884Z,101417.34
2023-05-19T00:25:40.444Z,101418.34
2023-05-19T00:30:41.944Z,101410.53
2023-05-19T00:35:43.505Z,101418.34
2023-05-19T00:40:45.587Z,101409.41
2023-05-19T00:45:47.302Z,101414.94
2023-05-19T00:50:50.833Z,101409.78
2023-05-19T00:55:52.341Z,101410.66
2023-05-19T01:00:56.118Z,101403.72
2023-05-19T01:06:01.589Z,101401.31
2023-05-19T01:11:04.172Z,101408.38
2023-05-19T01:16:13.991Z,101397.47
2023-05-19T01:21:38.430Z,101394.75
2023-05-19T01:27:26.862Z,101405.78
2023-05-19T01:32:30.027Z,101392.88
2023-05-19T01:37:32.222Z,101408.63
2023-05-19T01:42:37.352Z,101411.94
2023-05-19T01:47:42.748Z,101414.44
2023-05-19T01:52:44.363Z,101399.56
2023-05-19T01:58:05.092Z,101401.47
2023-05-19T02:03:26.027Z,101409.72
2023-05-19T02:08:31.196Z,101391.50
2023-05-19T02:13:37.842Z,101400.28
2023-05-19T02:18:40.545Z,101401.47
2023-05-19T02:23:42.156Z,101400.56
2023-05-19T02:28:43.684Z,101401.94
2023-05-19T02:33:45.185Z,101404.47
2023-05-19T02:38:46.691Z,101404.91
2023-05-19T02:43:48.190Z,101394.06
2023-05-19T02:48:50.812Z,101397.72
2023-05-19T02:53:52.322Z,101395.47
2023-05-19T02:58:53.842Z,101399.72
2023-05-19T03:03:55.774Z,101388.41
2023-05-19T03:08:57.293Z,101383.63
2023-05-19T03:13:58.897Z,101384.91
2023-05-19T03:19:00.575Z,101385.63
2023-05-19T03:24:02.503Z,101385.47
2023-05-19T03:29:04.507Z,101393.75
2023-05-19T03:34:09.765Z,101395.06
2023-05-19T03:39:12.081Z,101396.03
2023-05-19T03:44:14.295Z,101399.59
2023-05-19T03:49:15.893Z,101393.72
2023-05-19T03:54:32.599Z,101391.53
2023-05-19T03:59:35.350Z,101400.81
2023-05-19T04:04:38.605Z,101401.31
2023-05-19T04:09:40.170Z,101409.47
2023-05-19T04:14:41.657Z,101399.97
2023-05-19T04:19:45.024Z,101399.72
2023-05-19T04:24:47.124Z,101394.13
2023-05-19T04:29:49.941Z,101401.38
2023-05-19T04:34:51.765Z,101405.25
2023-05-19T04:39:58.352Z,101412.41
2023-05-19T04:45:03.527Z,101417.38
2023-05-19T04:50:07.475Z,101408.38
2023-05-19T04:55:11.188Z,101405.50
2023-05-19T05:00:14.213Z,101403.66
2023-05-19T05:05:37.464Z,101408.25
2023-05-19T05:10:44.226Z,101415.66
2023-05-19T05:15:59.504Z,101416.16
2023-05-19T05:21:09.296Z,101407.91
2023-05-19T05:26:18.737Z,101403.78
2023-05-19T05:31:22.928Z,101408.84
2023-05-19T05:36:24.482Z,101412.75
2023-05-19T05:41:27.423Z,101418.09
2023-05-19T05:46:32.328Z,101418.16
2023-05-19T05:51:34.727Z,101418.47
2023-05-19T05:56:37.596Z,101419.88
2023-05-19T06:01:43.870Z,101433.44
2023-05-19T06:06:46.297Z,101423.19
2023-05-19T06:11:53.284Z,101429.88
2023-05-19T06:16:55.658Z,101427.47
2023-05-19T06:21:57.289Z,101424.81
2023-05-19T06:26:59.470Z,101414.59
2023-05-19T06:32:01.239Z,101409.19
2023-05-19T06:37:03.771Z,101406.41
2023-05-19T06:42:07.984Z,101399.56
2023-05-19T06:47:29.280Z,101405.50
2023-05-19T06:52:31.232Z,101400.19
2023-05-19T06:57:32.997Z,101401.06
2023-05-19T07:02:35.974Z,101399.50
2023-05-19T07:07:38.722Z,101393.31
2023-05-19T07:12:44.465Z,101393.81
2023-05-19T07:17:47.176Z,101389.88
2023-05-19T07:22:48.882Z,101386.22
2023-05-19T07:27:50.955Z,101378.16
2023-05-19T07:32:52.636Z,101366.03
2023-05-19T07:37:56.523Z,101362.41
2023-05-19T07:42:58.109Z,101355.72
2023-05-19T07:47:59.620Z,101354.91
2023-05-19T07:53:01.201Z,101352.13
2023-05-19T07:58:02.702Z,101358.16
2023-05-19T08:03:04.365Z,101360.19
2023-05-19T08:08:06.119Z,101350.63
2023-05-19T08:13:08.295Z,101347.66
2023-05-19T08:18:11.236Z,101346.56
2023-05-19T08:23:12.857Z,101351.19
2023-05-19T08:28:14.413Z,101352.56
2023-05-19T08:33:16.241Z,101345.06
2023-05-19T08:38:17.727Z,101337.47
2023-05-19T08:43:19.354Z,101336.28
2023-05-19T08:48:22.070Z,101344.28
2023-05-19T08:53:33.888Z,101327.47
2023-05-19T08:58:37.295Z,101334.13
2023-05-19T09:03:39.772Z,101330.31
2023-05-19T09:08:42.290Z,101328.56
2023-05-19T09:13:43.948Z,101331.53
2023-05-19T09:18:56.483Z,101320.06
2023-05-19T09:24:05.086Z,101320.25
2023-05-19T09:29:16.447Z,101315.88
2023-05-19T09:34:18.661Z,101317.34
2023-05-19T09:39:21.930Z,101322.78
2023-05-19T09:44:24.561Z,101317.75
2023-05-19T09:49:32.780Z,101309.56
2023-05-19T09:54:34.625Z,101293.38
2023-05-19T09:59:38.845Z,101290.19
2023-05-19T10:04:42.293Z,101286.31
2023-05-19T10:09:44.780Z,101278.44
2023-05-19T10:14:48.692Z,101284.09
2023-05-19T10:19:52.205Z,101274.63
2023-05-19T10:24:55.895Z,101280.97
2023-05-19T10:30:02.074Z,101263.44
2023-05-19T10:35:20.521Z,101265.75
2023-05-19T10:40:28.473Z,101276.09
2023-05-19T10:45:34.456Z,101258.47
2023-05-19T10:50:37.770Z,101262.56
2023-05-19T10:55:53.283Z,101257.72
2023-05-19T11:01:00.924Z,101264.56
2023-05-19T11:06:29.006Z,101276.28
2023-05-19T11:11:44.897Z,101264.72
2023-05-19T11:16:48.243Z,101271.13
2023-05-19T11:21:55.224Z,101275.69
2023-05-19T11:26:58.355Z,101269.41
2023-05-19T11:32:00.629Z,101260.47
2023-05-19T11:37:02.793Z,101261.56
2023-05-19T11:42:04.506Z,101254.91
2023-05-19T11:47:06.249Z,101267.41
2023-05-19T11:52:09.092Z,101261.06
2023-05-19T11:57:10.936Z,101250.84
2023-05-19T12:02:28.008Z,101258.06
2023-05-19T12:07:29.600Z,101257.72
2023-05-19T12:12:32.027Z,101264.66
2023-05-19T12:17:38.337Z,101249.34
2023-05-19T12:22:39.882Z,101249.09
2023-05-19T12:27:43.381Z,101239.03
2023-05-19T12:32:46.785Z,101233.72
2023-05-19T12:37:49.153Z,101234.94
2023-05-19T12:42:53.409Z,101235.91
2023-05-19T12:47:55.324Z,101242.72
2023-05-19T12:52:58.410Z,101234.28
2023-05-19T12:58:07.172Z,101233.97
2023-05-19T13:03:15.961Z,101235.91
2023-05-19T13:08:20.216Z,101223.25
2023-05-19T13:13:22.051Z,101220.69
2023-05-19T13:18:24.383Z,101221.69
2023-05-19T13:23:26.325Z,101235.22
2023-05-19T13:28:28.245Z,101223.56
2023-05-19T13:33:29.764Z,101218.59
2023-05-19T13:38:31.255Z,101204.88
2023-05-19T13:43:32.739Z,101221.72
2023-05-19T13:48:34.219Z,101216.41
2023-05-19T13:53:35.786Z,101218.88
2023-05-19T13:58:37.298Z,101214.22
2023-05-19T14:03:38.881Z,101213.97
2023-05-19T14:08:41.231Z,101213.03
2023-05-19T14:13:43.411Z,101219.09
2023-05-19T14:18:44.985Z,101208.72
2023-05-19T14:23:46.588Z,101209.69
2023-05-19T14:28:48.067Z,101212.28
2023-05-19T14:33:49.793Z,101213.00
2023-05-19T14:38:51.271Z,101210.63
2023-05-19T14:43:52.794Z,101204.59
2023-05-19T14:48:54.373Z,101206.38
2023-05-19T14:53:56.341Z,101211.44
2023-05-19T14:58:57.862Z,101213.94
2023-05-19T15:03:59.392Z,101204.59
2023-05-19T15:09:00.941Z,101211.59
2023-05-19T15:14:02.434Z,101216.72
2023-05-19T15:19:04.037Z,101207.78
2023-05-19T15:24:05.854Z,101218.63
2023-05-19T15:29:07.347Z,101215.19
2023-05-19T15:34:08.913Z,101213.84
2023-05-19T15:39:10.382Z,101222.56
2023-05-19T15:44:12.013Z,101217.09
2023-05-19T15:49:13.585Z,101218.63
2023-05-19T15:54:15.154Z,101224.44
2023-05-19T15:59:16.648Z,101236.94
2023-05-19T16:04:18.169Z,101234.50
2023-05-19T16:09:19.704Z,101238.66
2023-05-19T16:14:21.193Z,101237.03
2023-05-19T16:19:23.901Z,101248.13
2023-05-19T16:24:25.502Z,101250.91
2023-05-19T16:29:27.074Z,101257.66
2023-05-19T16:34:30.580Z,101248.44
2023-05-19T16:39:32.343Z,101247.75
2023-05-19T16:44:33.819Z,101252.63
2023-05-19T16:49:35.295Z,101257.25
2023-05-19T16:54:36.978Z,101261.59
2023-05-19T16:59:38.456Z,101252.75
2023-05-19T17:04:39.938Z,101249.84
2023-05-19T17:09:42.321Z,101245.06
2023-05-19T17:14:44.162Z,101246.00
2023-05-19T17:19:46.032Z,101250.13
2023-05-19T17:24:47.515Z,101245.03
2023-05-19T17:29:49.157Z,101250.78
2023-05-19T17:34:50.772Z,101255.81
2023-05-19T17:39:52.375Z,101263.72
2023-05-19T17:44:53.921Z,101262.22
2023-05-19T17:49:55.682Z,101263.53
2023-05-19T17:54:57.384Z,101276.22
2023-05-19T17:59:59.826Z,101261.09
2023-05-19T18:05:01.776Z,101260.41
2023-05-19T18:10:05.061Z,101254.50
2023-05-19T18:15:06.846Z,101260.25
2023-05-19T18:20:08.753Z,101257.56
2023-05-19T18:25:10.256Z,101268.84
2023-05-19T18:30:11.805Z,101256.06
2023-05-19T18:35:13.290Z,101263.72
2023-05-19T18:40:14.788Z,101253.72
2023-05-19T18:45:16.313Z,101261.00
2023-05-19T18:50:17.793Z,101269.44
2023-05-19T18:55:19.287Z,101273.69
2023-05-19T19:00:20.774Z,101274.88
2023-05-19T19:05:22.281Z,101267.78
2023-05-19T19:10:23.778Z,101270.19
2023-05-19T19:15:25.977Z,101273.00
2023-05-19T19:20:27.705Z,101267.78
2023-05-19T19:25:29.221Z,101277.28
2023-05-19T19:30:30.899Z,101283.19
2023-05-19T19:35:32.408Z,101296.69
2023-05-19T19:40:34.148Z,101291.66
2023-05-19T19:45:39.139Z,101281.84
2023-05-19T19:50:40.792Z,101282.84
2023-05-19T19:55:43.033Z,101283.94
2023-05-19T20:00:44.582Z,101276.59
2023-05-19T20:05:46.070Z,101276.28
2023-05-19T20:10:48.157Z,101283.00
2023-05-19T20:15:49.993Z,101293.06
2023-05-19T20:20:51.576Z,101296.94
2023-05-19T20:26:10.144Z,101292.19
2023-05-19T20:31:13.854Z,101296.59
2023-05-19T20:36:15.616Z,101294.97
2023-05-19T20:41:17.380Z,101286.03
2023-05-19T20:46:18.887Z,101282.78
2023-05-19T20:51:21.668Z,101288.59
2023-05-19T20:56:23.258Z,101290.63
2023-05-19T21:01:26.239Z,101296.41
2023-05-19T21:06:27.834Z,101291.31
2023-05-19T21:11:29.911Z,101292.81
2023-05-19T21:16:31.923Z,101282.31
2023-05-19T21:21:33.804Z,101284.28
2023-05-19T21:26:35.620Z,101285.13
2023-05-19T21:31:37.262Z,101290.41
2023-05-19T21:36:38.853Z,101293.97
2023-05-19T21:41:42.197Z,101308.81
2023-05-19T21:46:43.803Z,101290.88
2023-05-19T21:51:45.339Z,101297.47
2023-05-19T21:56:46.844Z,101296.75
2023-05-19T22:01:48.398Z,101297.34
2023-05-19T22:06:49.899Z,101293.09
2023-05-19T22:11:51.718Z,101289.69
2023-05-19T22:16:53.314Z,101291.91
2023-05-19T22:22:01.921Z,101295.44
2023-05-19T22:27:04.077Z,101285.03
2023-05-19T22:32:07.600Z,101290.72
2023-05-19T22:37:09.096Z,101286.78
2023-05-19T22:42:10.587Z,101286.25
2023-05-19T22:47:13.771Z,101278.22
2023-05-19T22:52:15.619Z,101285.00
2023-05-19T22:57:17.112Z,101260.97
2023-05-19T23:02:19.743Z,101268.63
2023-05-19T23:07:21.242Z,101276.16
2023-05-19T23:12:22.722Z,101275.47
2023-05-19T23:17:24.259Z,101276.47
2023-05-19T23:22:25.862Z,101278.56
2023-05-19T23:27:27.352Z,101272.16
2023-05-19T23:32:29.051Z,101273.66
2023-05-19T23:37:30.694Z,101276.53
2023-05-19T23:42:32.205Z,101277.28
2023-05-19T23:47:33.717Z,101270.03
2023-05-19T23:52:35.317Z,101266.47
2023-05-19T23:57:36.815Z,101261.06
